Time;durP1;ratioP1;P1;durP2;ratioP2;P2;SDS_P1;SDS_P2;PMS_P1;PMS_P2;Temp;Humidity;BMP_temperature;BMP_pressure;BME280_temperature;BME280_humidity;BME280_pressure;Samples;Min_cycle;Max_cycle;Signal;HPM_P1;HPM_P2
2020/12/25 00:00:46;;;;;;;0.40;0.40;;;2.40;99.90;;;;;;1932194;73;21063;-73
2020/12/25 00:03:14;;;;;;;0.30;0.30;;;2.40;99.90;;;;;;1888465;74;21473;-73
2020/12/25 00:05:37;;;;;;;0.30;0.30;;;2.40;99.90;;;;;;1874260;74;21074;-73
2020/12/25 00:08:03;;;;;;;0.55;0.47;;;2.50;99.90;;;;;;1891791;74;21086;-73
2020/12/25 00:10:30;;;;;;;0.25;0.25;;;2.40;99.90;;;;;;1877440;73;21274;-73
2020/12/25 00:12:56;;;;;;;0.75;0.60;;;2.50;99.90;;;;;;1924059;73;21635;-71
2020/12/25 00:15:22;;;;;;;0.47;0.47;;;2.40;99.90;;;;;;1946848;73;21548;-71
2020/12/25 00:17:48;;;;;;;0.50;0.50;;;2.40;99.90;;;;;;1920234;73;21079;-72
2020/12/25 00:20:14;;;;;;;0.65;0.65;;;2.40;99.90;;;;;;1903782;73;21063;-72
2020/12/25 00:22:40;;;;;;;0.50;0.33;;;2.50;99.90;;;;;;1906190;73;21123;-73
2020/12/25 00:25:06;;;;;;;0.35;0.35;;;2.50;99.90;;;;;;1903787;73;21074;-73
2020/12/25 00:27:32;;;;;;;0.55;0.33;;;2.50;99.90;;;;;;1897327;73;21277;-73
2020/12/25 00:29:59;;;;;;;0.30;0.30;;;2.40;99.90;;;;;;1918684;73;21082;-73
2020/12/25 00:32:25;;;;;;;0.60;0.60;;;2.40;99.90;;;;;;1915335;73;21253;-74
2020/12/25 00:34:51;;;;;;;0.68;0.50;;;2.40;99.90;;;;;;1931195;73;21701;-72
2020/12/25 00:37:17;;;;;;;1.67;0.62;;;2.50;99.90;;;;;;1929737;73;21544;-72
2020/12/25 00:39:43;;;;;;;0.78;0.65;;;2.50;99.90;;;;;;1908828;73;21448;-72
2020/12/25 00:42:10;;;;;;;0.45;0.45;;;2.50;99.90;;;;;;1902734;73;21081;-71
2020/12/25 00:44:36;;;;;;;0.40;0.40;;;2.60;99.90;;;;;;1898819;73;21084;-72
2020/12/25 00:47:02;;;;;;;0.60;0.60;;;2.60;99.90;;;;;;1897659;73;21147;-72
2020/12/25 00:49:28;;;;;;;0.33;0.33;;;2.60;99.90;;;;;;1902666;73;21155;-72
2020/12/25 00:51:54;;;;;;;0.85;0.50;;;2.60;99.90;;;;;;1910168;73;21078;-72
2020/12/25 00:54:23;;;;;;;0.78;0.53;;;2.60;99.90;;;;;;1904307;73;21485;-73
2020/12/25 00:56:48;;;;;;;0.40;0.40;;;2.60;99.90;;;;;;1907737;73;21110;-72
2020/12/25 00:59:16;;;;;;;0.42;0.42;;;2.60;99.90;;;;;;1903187;74;21148;-73
2020/12/25 01:01:42;;;;;;;0.50;0.50;;;2.70;99.90;;;;;;1912915;73;21125;-72
2020/12/25 01:04:08;;;;;;;0.20;0.20;;;2.70;99.90;;;;;;1894156;73;21168;-72
2020/12/25 01:06:35;;;;;;;0.90;0.50;;;2.70;99.90;;;;;;1910036;73;21147;-72
2020/12/25 01:09:01;;;;;;;0.30;0.30;;;2.70;99.90;;;;;;1904561;73;21074;-72
2020/12/25 01:11:27;;;;;;;0.30;0.30;;;2.70;99.90;;;;;;1899778;74;21081;-72
2020/12/25 01:13:53;;;;;;;0.30;0.30;;;2.70;99.90;;;;;;1896706;75;21155;-72
2020/12/25 01:16:19;;;;;;;0.20;0.20;;;2.70;99.90;;;;;;1911651;73;21530;-72
2020/12/25 01:18:45;;;;;;;0.50;0.50;;;2.70;99.90;;;;;;1914861;73;21451;-74
2020/12/25 01:21:11;;;;;;;0.68;0.37;;;2.70;99.90;;;;;;1900262;73;21623;-72
2020/12/25 01:23:37;;;;;;;0.28;0.28;;;2.60;99.90;;;;;;1919693;73;21196;-72
2020/12/25 01:26:05;;;;;;;0.37;0.37;;;2.60;99.90;;;;;;1911379;73;21175;-72
2020/12/25 01:28:31;;;;;;;0.42;0.42;;;2.60;99.90;;;;;;1941438;73;21085;-72
2020/12/25 01:30:57;;;;;;;0.60;0.60;;;2.60;99.90;;;;;;1911248;73;21547;-71
2020/12/25 01:33:23;;;;;;;0.65;0.65;;;2.60;99.90;;;;;;1931542;73;21214;-74
2020/12/25 01:35:49;;;;;;;0.40;0.40;;;2.70;99.90;;;;;;1885246;74;21205;-73
2020/12/25 01:38:16;;;;;;;0.68;0.68;;;2.60;99.90;;;;;;1874073;73;21255;-73
2020/12/25 01:40:42;;;;;;;2.37;0.60;;;2.60;99.90;;;;;;1870759;74;21074;-71
2020/12/25 01:43:09;;;;;;;0.65;0.65;;;2.50;99.90;;;;;;1896448;73;21047;-72
2020/12/25 01:45:35;;;;;;;0.62;0.62;;;2.50;99.90;;;;;;1887257;73;21132;-72
2020/12/25 01:48:01;;;;;;;1.75;0.82;;;2.50;99.90;;;;;;1942807;73;21156;-73
2020/12/25 01:50:28;;;;;;;0.82;0.65;;;2.60;99.90;;;;;;1943702;73;21051;-72
2020/12/25 01:52:54;;;;;;;1.42;0.80;;;2.50;99.90;;;;;;1928400;72;21050;-72
2020/12/25 01:55:20;;;;;;;0.50;0.50;;;2.50;99.90;;;;;;1924881;73;21075;-72
2020/12/25 01:57:46;;;;;;;0.70;0.70;;;2.50;99.90;;;;;;1903576;73;21058;-73
2020/12/25 02:00:12;;;;;;;0.80;0.80;;;2.50;99.90;;;;;;1928679;73;21079;-72
2020/12/25 02:02:39;;;;;;;0.60;0.60;;;2.50;99.90;;;;;;1905858;73;21117;-72
2020/12/25 02:05:05;;;;;;;1.70;0.80;;;2.50;99.90;;;;;;1876360;75;21136;-73
2020/12/25 02:07:31;;;;;;;0.80;0.78;;;2.60;99.90;;;;;;1897260;75;21141;-72
2020/12/25 02:09:57;;;;;;;0.70;0.70;;;2.60;99.90;;;;;;1893096;75;21057;-71
2020/12/25 02:12:23;;;;;;;0.70;0.70;;;2.60;99.90;;;;;;1901577;75;21049;-71
2020/12/25 02:14:49;;;;;;;2.05;0.80;;;2.50;99.90;;;;;;1901656;74;21145;-71
2020/12/25 02:17:15;;;;;;;0.50;0.50;;;2.50;99.90;;;;;;1924382;72;21493;-71
2020/12/25 02:19:41;;;;;;;0.80;0.80;;;2.60;99.90;;;;;;1924132;72;21537;-72
2020/12/25 02:22:07;;;;;;;0.80;0.80;;;2.60;99.90;;;;;;1902253;73;21489;-73
2020/12/25 02:24:34;;;;;;;1.22;0.80;;;2.70;99.90;;;;;;1896964;73;21073;-72
2020/12/25 02:27:00;;;;;;;0.93;0.80;;;2.70;99.90;;;;;;1887339;73;21082;-72
2020/12/25 02:29:26;;;;;;;1.30;1.10;;;2.70;99.90;;;;;;1880690;74;21039;-72
2020/12/25 02:31:52;;;;;;;1.17;1.07;;;2.80;99.90;;;;;;1908349;74;21203;-72
2020/12/25 02:34:18;;;;;;;1.20;1.10;;;2.80;99.90;;;;;;1908967;73;21258;-72
2020/12/25 02:36:44;;;;;;;1.98;1.30;;;2.80;99.90;;;;;;1936667;73;21057;-71
2020/12/25 02:39:10;;;;;;;1.37;1.20;;;2.80;99.90;;;;;;1931995;73;21070;-73
2020/12/25 02:41:36;;;;;;;2.35;1.72;;;2.90;99.90;;;;;;1929616;73;21257;-74
2020/12/25 02:44:03;;;;;;;1.57;1.45;;;2.90;99.90;;;;;;1924604;73;21209;-71
2020/12/25 02:46:29;;;;;;;2.67;1.95;;;3.00;99.90;;;;;;1934329;73;21086;-72
2020/12/25 02:48:55;;;;;;;2.33;1.82;;;3.00;99.90;;;;;;1927944;73;21044;-73
2020/12/25 02:51:21;;;;;;;4.90;2.42;;;3.00;99.90;;;;;;1929312;73;21500;-72
2020/12/25 02:53:47;;;;;;;2.47;2.25;;;3.10;99.90;;;;;;1924520;73;21550;-72
2020/12/25 02:56:13;;;;;;;2.98;2.25;;;3.10;99.90;;;;;;1928363;73;21469;-72
2020/12/25 02:58:39;;;;;;;2.55;2.08;;;3.20;99.90;;;;;;1932272;73;21062;-72
2020/12/25 03:01:05;;;;;;;2.45;2.12;;;3.20;99.90;;;;;;1932515;73;21064;-73
2020/12/25 03:03:31;;;;;;;4.08;2.12;;;3.30;99.90;;;;;;1945608;73;21070;-72
2020/12/25 03:05:58;;;;;;;2.98;1.95;;;3.30;99.90;;;;;;1940903;73;21042;-73
2020/12/25 03:08:24;;;;;;;3.72;2.33;;;3.30;99.90;;;;;;1911484;73;21206;-72
2020/12/25 03:10:50;;;;;;;2.80;2.50;;;3.30;99.90;;;;;;1915618;73;21080;-72
2020/12/25 03:13:16;;;;;;;2.60;2.40;;;3.30;99.90;;;;;;1919875;73;21070;-71
2020/12/25 03:15:42;;;;;;;8.60;3.10;;;3.30;99.90;;;;;;1921062;73;21077;-71
2020/12/25 03:18:08;;;;;;;2.25;2.05;;;3.30;99.90;;;;;;1924899;73;21152;-71
2020/12/25 03:20:34;;;;;;;2.87;2.20;;;3.40;99.90;;;;;;1892635;75;21074;-72
2020/12/25 03:23:00;;;;;;;5.28;2.45;;;3.40;99.90;;;;;;1886924;74;21431;-72
2020/12/25 03:25:27;;;;;;;3.80;2.83;;;3.30;99.90;;;;;;1895130;73;21470;-72
2020/12/25 03:27:53;;;;;;;2.62;2.20;;;3.30;99.90;;;;;;1891896;74;21572;-72
2020/12/25 03:30:19;;;;;;;2.22;2.10;;;3.40;99.90;;;;;;1912731;74;21120;-71
2020/12/25 03:32:45;;;;;;;3.62;2.50;;;3.50;99.90;;;;;;1928056;72;21124;-72
2020/12/25 03:35:11;;;;;;;4.62;2.60;;;3.40;99.90;;;;;;1908707;73;21156;-72
2020/12/25 03:37:37;;;;;;;3.72;2.50;;;3.40;99.90;;;;;;1922664;73;21072;-71
2020/12/25 03:40:03;;;;;;;4.25;2.55;;;3.40;99.90;;;;;;1879445;74;21156;-73
2020/12/25 03:42:29;;;;;;;6.20;2.92;;;3.40;99.90;;;;;;1887922;74;21078;-71
2020/12/25 03:44:56;;;;;;;3.98;2.33;;;3.50;99.90;;;;;;1901945;73;21052;-72
2020/12/25 03:47:22;;;;;;;8.45;2.40;;;3.40;99.90;;;;;;1887990;73;21098;-71
2020/12/25 03:49:48;;;;;;;5.72;2.58;;;3.40;99.90;;;;;;1891005;73;21035;-72
2020/12/25 03:52:14;;;;;;;3.72;2.52;;;3.30;99.90;;;;;;1877557;74;21066;-71
2020/12/25 03:54:40;;;;;;;3.10;2.17;;;3.30;99.90;;;;;;1911349;74;21200;-72
2020/12/25 03:57:06;;;;;;;3.92;2.33;;;3.40;99.90;;;;;;1903480;73;21065;-71
2020/12/25 03:59:33;;;;;;;6.28;2.62;;;3.40;99.90;;;;;;1887553;73;21203;-72
2020/12/25 04:01:59;;;;;;;4.72;2.60;;;3.40;99.90;;;;;;1882275;74;21069;-73
2020/12/25 04:04:25;;;;;;;4.03;2.80;;;3.30;99.90;;;;;;1902615;73;21083;-73
2020/12/25 04:06:51;;;;;;;3.10;2.80;;;3.30;99.90;;;;;;1884083;73;21451;-72
2020/12/25 04:09:17;;;;;;;3.70;2.47;;;3.40;99.90;;;;;;1899353;73;21529;-73
2020/12/25 04:11:43;;;;;;;4.12;2.50;;;3.40;99.90;;;;;;1888532;73;21652;-72
2020/12/25 04:14:09;;;;;;;3.37;2.70;;;3.40;99.90;;;;;;1881204;74;21184;-73
2020/12/25 04:16:35;;;;;;;4.62;2.60;;;3.40;99.90;;;;;;1890926;73;21069;-72
2020/12/25 04:19:02;;;;;;;2.53;2.23;;;3.40;99.90;;;;;;1878575;74;21074;-72
2020/12/25 04:21:28;;;;;;;5.92;3.00;;;3.40;99.90;;;;;;1892961;73;21187;-71
2020/12/25 04:23:54;;;;;;;4.62;2.77;;;3.40;99.90;;;;;;1911617;73;21078;-72
2020/12/25 04:26:20;;;;;;;3.02;2.50;;;3.40;99.90;;;;;;1888438;73;21169;-71
2020/12/25 04:28:46;;;;;;;3.62;2.35;;;3.40;99.90;;;;;;1887936;73;21143;-71
2020/12/25 04:31:12;;;;;;;3.45;2.60;;;3.50;99.90;;;;;;1909625;74;21074;-71
2020/12/25 04:33:38;;;;;;;4.62;2.75;;;3.40;99.90;;;;;;1909661;73;21083;-71
2020/12/25 04:36:04;;;;;;;4.67;2.40;;;3.50;99.90;;;;;;1903301;74;21086;-72
2020/12/25 04:38:31;;;;;;;2.83;2.40;;;3.40;99.90;;;;;;1894028;73;21085;-72
2020/12/25 04:40:57;;;;;;;2.92;2.12;;;3.50;99.90;;;;;;1907886;73;21671;-72
2020/12/25 04:43:23;;;;;;;2.80;2.33;;;3.40;99.90;;;;;;1879813;73;21422;-72
2020/12/25 04:45:49;;;;;;;2.70;2.37;;;3.40;99.90;;;;;;1884856;73;21482;-72
2020/12/25 04:48:15;;;;;;;3.52;2.35;;;3.40;99.90;;;;;;1924028;73;21076;-72
2020/12/25 04:50:41;;;;;;;2.60;2.37;;;3.30;99.90;;;;;;1895886;73;21171;-73
2020/12/25 04:53:07;;;;;;;2.83;2.30;;;3.40;99.90;;;;;;1905622;73;21131;-71
2020/12/25 04:55:33;;;;;;;7.03;2.52;;;3.40;99.90;;;;;;1906230;74;21175;-72
2020/12/25 04:57:59;;;;;;;3.80;2.55;;;3.30;99.90;;;;;;1931895;73;21062;-71
2020/12/25 05:00:27;;;;;;;3.55;2.58;;;3.40;99.90;;;;;;1933173;73;21071;-72
2020/12/25 05:02:53;;;;;;;3.60;2.75;;;3.30;99.90;;;;;;1881765;75;21135;-72
2020/12/25 05:05:19;;;;;;;3.87;2.42;;;3.40;99.90;;;;;;1919132;74;21086;-71
2020/12/25 05:07:46;;;;;;;2.72;2.40;;;3.30;99.90;;;;;;1919869;73;21199;-72
2020/12/25 05:10:12;;;;;;;3.77;2.37;;;3.30;99.90;;;;;;1912737;73;21071;-71
2020/12/25 05:12:38;;;;;;;2.40;2.12;;;3.20;99.90;;;;;;1916597;73;21140;-71
2020/12/25 05:15:04;;;;;;;4.03;2.83;;;3.30;99.90;;;;;;1928307;73;21065;-71
2020/12/25 05:17:30;;;;;;;2.47;2.27;;;3.40;99.90;;;;;;1910428;74;21082;-72
2020/12/25 05:19:56;;;;;;;2.77;2.17;;;3.30;99.90;;;;;;1910929;74;21066;-73
2020/12/25 05:22:22;;;;;;;4.12;2.17;;;3.30;99.90;;;;;;1916588;73;21043;-73
2020/12/25 05:24:48;;;;;;;4.60;2.72;;;3.30;99.90;;;;;;1919396;74;21085;-72
2020/12/25 05:27:14;;;;;;;2.70;2.10;;;3.30;99.90;;;;;;1923243;73;21502;-73
2020/12/25 05:29:41;;;;;;;2.98;2.27;;;3.40;99.90;;;;;;1921249;73;21486;-72
2020/12/25 05:32:07;;;;;;;3.33;2.20;;;3.40;99.90;;;;;;1921327;73;21556;-73
2020/12/25 05:34:33;;;;;;;3.35;2.00;;;3.30;99.90;;;;;;1922618;73;21139;-72
2020/12/25 05:36:59;;;;;;;2.95;2.20;;;3.30;99.90;;;;;;1923203;74;21149;-73
2020/12/25 05:39:25;;;;;;;3.70;2.30;;;3.30;99.90;;;;;;1925062;73;21075;-71
2020/12/25 05:41:51;;;;;;;3.27;2.40;;;3.30;99.90;;;;;;1919884;73;21090;-71
2020/12/25 05:44:17;;;;;;;5.28;2.35;;;3.30;99.90;;;;;;1912089;73;21047;-73
2020/12/25 05:46:43;;;;;;;2.47;2.27;;;3.20;99.90;;;;;;1914167;74;21054;-71
2020/12/25 05:49:10;;;;;;;4.78;2.62;;;3.20;99.90;;;;;;1902936;73;21469;-72
2020/12/25 05:51:36;;;;;;;4.65;1.85;;;3.30;99.90;;;;;;1904997;74;21572;-72
2020/12/25 05:54:02;;;;;;;2.25;2.02;;;3.30;99.90;;;;;;1905915;73;21461;-71
2020/12/25 05:56:28;;;;;;;2.95;2.25;;;3.30;99.90;;;;;;1908829;73;21148;-72
2020/12/25 05:58:54;;;;;;;4.50;2.27;;;3.30;99.90;;;;;;1911703;73;21145;-72
2020/12/25 06:01:20;;;;;;;3.35;2.65;;;3.20;99.90;;;;;;1917395;73;21070;-72
2020/12/25 06:03:46;;;;;;;4.35;2.27;;;3.30;99.90;;;;;;1904789;74;21056;-71
2020/12/25 06:06:12;;;;;;;2.52;2.33;;;3.30;99.90;;;;;;1908962;74;21074;-71
2020/12/25 06:08:39;;;;;;;2.58;2.15;;;3.20;99.90;;;;;;1916153;73;21085;-72
2020/12/25 06:11:05;;;;;;;2.87;2.20;;;3.20;99.90;;;;;;1925756;73;21082;-72
2020/12/25 06:13:31;;;;;;;2.75;2.37;;;3.30;99.90;;;;;;1928582;73;21184;-71
2020/12/25 06:15:57;;;;;;;5.40;2.50;;;3.20;99.90;;;;;;1920323;73;21266;-73
2020/12/25 06:18:23;;;;;;;3.37;2.70;;;3.20;99.90;;;;;;1922233;73;21074;-73
2020/12/25 06:20:49;;;;;;;3.20;2.60;;;3.20;99.90;;;;;;1914838;74;21051;-71
2020/12/25 06:23:15;;;;;;;4.85;2.60;;;3.20;99.90;;;;;;1923189;73;21490;-71
2020/12/25 06:25:41;;;;;;;3.35;2.30;;;3.20;99.90;;;;;;1920273;73;21485;-73
2020/12/25 06:28:08;;;;;;;3.50;2.87;;;3.20;99.90;;;;;;1915556;73;21567;-73
2020/12/25 06:30:34;;;;;;;2.50;2.20;;;3.30;99.90;;;;;;1921889;73;21074;-73
2020/12/25 06:33:00;;;;;;;2.62;2.30;;;3.30;99.90;;;;;;1927142;73;21066;-73
2020/12/25 06:35:26;;;;;;;5.33;2.62;;;3.30;99.90;;;;;;1921738;73;21140;-73
2020/12/25 06:37:52;;;;;;;2.15;1.95;;;3.30;99.90;;;;;;1921688;73;21079;-72
2020/12/25 06:40:18;;;;;;;3.10;2.80;;;3.20;99.90;;;;;;1921864;73;21056;-74
2020/12/25 06:42:44;;;;;;;5.87;3.15;;;3.20;99.90;;;;;;1910722;74;21156;-71
2020/12/25 06:45:10;;;;;;;2.90;2.58;;;3.20;99.90;;;;;;1915014;73;21073;-73
2020/12/25 06:47:36;;;;;;;2.67;2.27;;;3.10;99.90;;;;;;1916794;74;21085;-71
2020/12/25 06:50:03;;;;;;;2.95;2.45;;;3.10;99.90;;;;;;1921884;73;21074;-73
2020/12/25 06:52:29;;;;;;;4.92;3.22;;;3.10;99.90;;;;;;1925831;73;21090;-71
2020/12/25 06:54:55;;;;;;;4.97;2.85;;;3.10;99.90;;;;;;1912819;74;21086;-73
2020/12/25 06:57:21;;;;;;;3.87;2.80;;;3.00;99.90;;;;;;1917766;73;21456;-72
2020/12/25 06:59:47;;;;;;;3.60;2.90;;;3.00;99.90;;;;;;1923807;73;21542;-72
2020/12/25 07:02:13;;;;;;;3.22;2.77;;;3.00;99.90;;;;;;1922403;73;21047;-73
2020/12/25 07:04:39;;;;;;;9.70;3.02;;;3.00;99.90;;;;;;1922892;74;21183;-72
2020/12/25 07:07:06;;;;;;;4.72;2.80;;;3.00;99.90;;;;;;1919716;73;21105;-71
2020/12/25 07:09:32;;;;;;;4.70;3.12;;;3.00;99.90;;;;;;1909867;74;21494;-72
2020/12/25 07:11:58;;;;;;;3.67;3.08;;;3.00;99.90;;;;;;1917599;74;21508;-72
2020/12/25 07:14:24;;;;;;;3.77;2.65;;;3.10;99.90;;;;;;1916082;73;21082;-73
2020/12/25 07:16:50;;;;;;;5.70;3.00;;;3.10;99.90;;;;;;1914468;73;21070;-72
2020/12/25 07:19:16;;;;;;;3.58;2.77;;;3.10;99.90;;;;;;1923403;73;21205;-73
2020/12/25 07:21:42;;;;;;;2.30;1.95;;;3.10;99.90;;;;;;1908298;74;21225;-72
2020/12/25 07:24:08;;;;;;;8.63;2.72;;;3.10;99.90;;;;;;1918146;73;21055;-72
2020/12/25 07:26:35;;;;;;;2.42;2.22;;;3.10;99.90;;;;;;1917601;73;21062;-72
2020/12/25 07:29:01;;;;;;;3.98;2.72;;;3.00;99.90;;;;;;1927966;73;21188;-72
2020/12/25 07:31:27;;;;;;;3.75;2.85;;;2.90;99.90;;;;;;1905941;73;21070;-73
2020/12/25 07:33:54;;;;;;;3.10;2.60;;;2.90;99.90;;;;;;1912102;73;21162;-73
2020/12/25 07:36:20;;;;;;;3.27;2.65;;;2.90;99.90;;;;;;1912076;73;21090;-73
2020/12/25 07:38:47;;;;;;;4.08;2.50;;;2.90;99.90;;;;;;1908485;73;21136;-72
2020/12/25 07:41:13;;;;;;;2.92;2.02;;;2.90;99.90;;;;;;1914109;73;21151;-72
2020/12/25 07:43:39;;;;;;;2.80;2.15;;;2.90;99.90;;;;;;1922425;73;21047;-71
2020/12/25 07:46:05;;;;;;;2.42;2.15;;;2.90;99.90;;;;;;1924825;73;21078;-72
2020/12/25 07:48:31;;;;;;;2.95;2.15;;;2.90;99.90;;;;;;1913834;73;21136;-72
2020/12/25 07:50:57;;;;;;;2.60;2.40;;;2.90;99.90;;;;;;1918703;73;21127;-73
2020/12/25 07:53:23;;;;;;;3.33;2.65;;;2.90;99.90;;;;;;1917641;73;21478;-73
2020/12/25 07:55:49;;;;;;;4.20;2.08;;;2.90;99.90;;;;;;1914173;73;21447;-72
2020/12/25 07:58:16;;;;;;;3.60;2.52;;;2.90;99.90;;;;;;1922307;73;21597;-72
2020/12/25 08:00:42;;;;;;;4.05;3.02;;;2.90;99.90;;;;;;1921082;73;21070;-72
2020/12/25 08:03:08;;;;;;;3.92;2.80;;;2.90;99.90;;;;;;1917601;73;21046;-72
2020/12/25 08:05:34;;;;;;;2.50;2.30;;;2.90;99.90;;;;;;1923067;74;21147;-73
2020/12/25 08:08:00;;;;;;;3.92;3.00;;;3.00;99.90;;;;;;1918995;73;21134;-72
2020/12/25 08:10:26;;;;;;;3.08;2.77;;;2.90;99.90;;;;;;1919367;74;21078;-73
2020/12/25 08:12:52;;;;;;;3.00;2.70;;;3.00;99.90;;;;;;1916802;73;21151;-71
2020/12/25 08:15:19;;;;;;;3.80;2.80;;;3.00;99.90;;;;;;1919300;73;21078;-73
2020/12/25 08:17:45;;;;;;;3.55;2.50;;;3.10;99.90;;;;;;1921668;73;21500;-72
2020/12/25 08:20:11;;;;;;;3.40;2.77;;;3.10;99.90;;;;;;1916380;74;21188;-71
2020/12/25 08:22:37;;;;;;;4.42;2.80;;;3.10;99.90;;;;;;1921737;73;21082;-71
2020/12/25 08:25:04;;;;;;;4.33;3.33;;;3.10;99.90;;;;;;1927247;73;21043;-69
2020/12/25 08:27:32;;;;;;;3.62;3.15;;;3.20;99.90;;;;;;1923233;73;21077;-70
2020/12/25 08:29:57;;;;;;;3.70;2.75;;;3.30;99.90;;;;;;1926373;73;21415;-71
2020/12/25 08:32:24;;;;;;;4.03;2.62;;;3.30;99.90;;;;;;1922832;73;21144;-70
2020/12/25 08:34:50;;;;;;;3.35;2.55;;;3.20;99.90;;;;;;1922425;73;21070;-70
2020/12/25 08:37:16;;;;;;;4.80;3.40;;;3.20;99.90;;;;;;1912745;73;21082;-70
2020/12/25 08:39:42;;;;;;;3.00;2.75;;;3.30;99.90;;;;;;1922108;73;21136;-70
2020/12/25 08:42:09;;;;;;;3.72;3.00;;;3.20;99.90;;;;;;1915783;73;21086;-70
2020/12/25 08:44:36;;;;;;;4.33;2.87;;;3.20;99.90;;;;;;1914082;73;21077;-69
2020/12/25 08:47:02;;;;;;;3.22;2.80;;;3.30;99.90;;;;;;1920047;74;21097;-69
2020/12/25 08:49:28;;;;;;;4.17;3.08;;;3.30;99.90;;;;;;1911325;73;21544;-72
2020/12/25 08:51:54;;;;;;;3.77;2.75;;;3.30;99.90;;;;;;1919892;73;21427;-77
2020/12/25 08:54:20;;;;;;;5.40;3.25;;;3.20;99.90;;;;;;1926195;73;21643;-70
2020/12/25 08:56:46;;;;;;;8.33;3.27;;;3.20;99.90;;;;;;1908352;74;21078;-70
2020/12/25 08:59:14;;;;;;;3.65;2.37;;;3.20;99.90;;;;;;1910449;74;21078;-70
2020/12/25 09:01:41;;;;;;;3.95;3.17;;;3.30;99.90;;;;;;1920339;74;21533;-71
2020/12/25 09:04:07;;;;;;;6.40;3.72;;;3.20;99.90;;;;;;1917445;73;21184;-70
2020/12/25 09:06:33;;;;;;;4.53;2.70;;;3.20;99.90;;;;;;1912880;74;21071;-70
2020/12/25 09:08:59;;;;;;;3.10;2.80;;;3.20;99.90;;;;;;1920916;73;21213;-71
2020/12/25 09:11:25;;;;;;;2.90;2.60;;;3.10;99.90;;;;;;1912890;74;21132;-71
2020/12/25 09:13:54;;;;;;;4.12;3.12;;;3.20;99.90;;;;;;1920697;74;21043;-70
2020/12/25 09:16:20;;;;;;;5.28;2.98;;;3.10;99.90;;;;;;1912516;74;21138;-69
2020/12/25 09:18:47;;;;;;;3.83;2.60;;;3.20;99.90;;;;;;1921145;73;21082;-69
2020/12/25 09:21:13;;;;;;;6.17;3.50;;;3.30;99.90;;;;;;1922812;73;21074;-71
2020/12/25 09:23:39;;;;;;;6.03;3.87;;;3.40;99.90;;;;;;1924799;74;21082;-70
2020/12/25 09:26:05;;;;;;;6.30;4.17;;;3.60;99.90;;;;;;1922484;74;21079;-71
2020/12/25 09:28:31;;;;;;;3.83;3.17;;;3.60;99.90;;;;;;1918829;74;21059;-69
2020/12/25 09:30:57;;;;;;;12.28;4.42;;;3.70;99.90;;;;;;1913015;74;21047;-70
2020/12/25 09:33:23;;;;;;;8.38;4.22;;;3.60;99.90;;;;;;1921688;74;21551;-70
2020/12/25 09:35:49;;;;;;;7.05;4.33;;;3.60;99.90;;;;;;1924914;74;21510;-70
2020/12/25 09:38:16;;;;;;;5.15;4.05;;;3.70;99.90;;;;;;1919040;74;21495;-70
2020/12/25 09:40:42;;;;;;;8.25;4.28;;;3.80;99.90;;;;;;1924116;74;21148;-72
2020/12/25 09:43:08;;;;;;;6.37;4.47;;;3.80;99.90;;;;;;1921816;74;21083;-72
2020/12/25 09:45:34;;;;;;;7.75;4.00;;;3.90;99.90;;;;;;1918939;74;21076;-70
2020/12/25 09:48:00;;;;;;;11.60;4.35;;;3.90;99.90;;;;;;1919106;73;21059;-72
2020/12/25 09:50:26;;;;;;;13.45;4.42;;;3.90;99.90;;;;;;1924869;74;21152;-71
2020/12/25 09:52:52;;;;;;;8.93;4.37;;;3.80;99.90;;;;;;1925064;73;21131;-72
2020/12/25 09:55:19;;;;;;;12.53;5.03;;;3.80;99.90;;;;;;1922920;74;21082;-71
2020/12/25 09:57:45;;;;;;;5.12;4.20;;;3.80;99.90;;;;;;1919344;73;21082;-72
2020/12/25 10:00:11;;;;;;;6.55;4.60;;;4.00;99.90;;;;;;1923025;74;21195;-72
2020/12/25 10:02:37;;;;;;;6.67;4.55;;;4.00;99.90;;;;;;1914988;74;21139;-73
2020/12/25 10:05:03;;;;;;;7.12;4.30;;;4.00;99.90;;;;;;1916916;74;21258;-69
2020/12/25 10:07:29;;;;;;;5.03;4.17;;;4.00;99.90;;;;;;1918733;74;21151;-71
2020/12/25 10:09:55;;;;;;;5.12;4.17;;;4.00;99.90;;;;;;1914955;74;21075;-70
2020/12/25 10:12:22;;;;;;;6.45;4.35;;;4.00;99.90;;;;;;1920997;74;21050;-68
2020/12/25 10:14:48;;;;;;;4.95;3.40;;;4.20;99.90;;;;;;1925167;73;21128;-70
2020/12/25 10:17:14;;;;;;;5.90;3.77;;;4.20;99.90;;;;;;1918941;73;21094;-69
2020/12/25 10:19:40;;;;;;;6.28;3.02;;;4.30;99.90;;;;;;1915133;74;21490;-69
2020/12/25 10:22:06;;;;;;;9.65;3.35;;;4.30;99.90;;;;;;1924681;74;22597;-69
2020/12/25 10:24:32;;;;;;;5.08;4.03;;;4.40;99.90;;;;;;1924662;73;21592;-69
2020/12/25 10:27:00;;;;;;;3.67;3.10;;;4.50;99.90;;;;;;1922453;73;21161;-70
2020/12/25 10:29:28;;;;;;;4.80;3.20;;;4.60;99.90;;;;;;1912738;74;21082;-70
2020/12/25 10:31:54;;;;;;;4.37;2.90;;;4.60;99.90;;;;;;1912937;74;21071;-70
2020/12/25 10:34:20;;;;;;;5.33;2.98;;;4.60;99.90;;;;;;1915581;74;21149;-69
2020/12/25 10:36:46;;;;;;;4.92;3.12;;;4.70;99.90;;;;;;1922349;74;21078;-69
2020/12/25 10:39:12;;;;;;;5.08;3.42;;;4.80;99.90;;;;;;1913735;74;21078;-69
2020/12/25 10:41:38;;;;;;;4.42;2.70;;;4.80;99.90;;;;;;1925011;73;21078;-69
2020/12/25 10:44:05;;;;;;;3.33;2.90;;;4.70;99.90;;;;;;1923897;74;21074;-69
2020/12/25 10:46:31;;;;;;;4.90;3.12;;;4.60;99.90;;;;;;1912942;74;21545;-70
2020/12/25 10:48:57;;;;;;;4.00;2.72;;;4.70;99.90;;;;;;1912721;74;21083;-70
2020/12/25 10:51:23;;;;;;;5.17;3.12;;;4.70;99.90;;;;;;1920264;73;21141;-70
2020/12/25 10:53:49;;;;;;;4.80;3.00;;;4.70;99.90;;;;;;1919018;74;21074;-69
2020/12/25 10:56:15;;;;;;;4.25;2.95;;;4.70;99.90;;;;;;1922967;74;21051;-69
2020/12/25 10:58:41;;;;;;;6.55;2.98;;;4.60;99.90;;;;;;1916272;74;21117;-70
2020/12/25 11:01:07;;;;;;;5.05;2.95;;;4.60;99.90;;;;;;1904111;74;21115;-72
2020/12/25 11:03:33;;;;;;;3.83;2.80;;;4.60;99.90;;;;;;1903159;74;21082;-70
2020/12/25 11:06:00;;;;;;;2.98;2.50;;;4.60;99.90;;;;;;1906199;74;21075;-71
2020/12/25 11:08:26;;;;;;;3.50;2.75;;;4.50;99.90;;;;;;1903745;73;21153;-71
2020/12/25 11:10:52;;;;;;;7.28;3.05;;;4.60;99.90;;;;;;1905110;74;21196;-69
2020/12/25 11:13:18;;;;;;;4.45;2.67;;;4.70;99.90;;;;;;1902936;74;21056;-70
2020/12/25 11:15:44;;;;;;;5.15;2.62;;;4.60;99.90;;;;;;1915169;74;21473;-70
2020/12/25 11:18:10;;;;;;;3.95;2.80;;;4.70;99.90;;;;;;1875110;75;21481;-70
2020/12/25 11:20:36;;;;;;;3.75;2.75;;;4.80;99.90;;;;;;1880055;74;21616;-70
2020/12/25 11:23:02;;;;;;;3.10;2.17;;;4.70;99.90;;;;;;1877339;74;21152;-70
2020/12/25 11:25:29;;;;;;;3.15;2.70;;;4.60;99.90;;;;;;1892727;74;21153;-71
2020/12/25 11:27:55;;;;;;;3.67;2.87;;;4.40;99.90;;;;;;1897432;74;21043;-70
2020/12/25 11:30:21;;;;;;;3.22;2.58;;;4.50;99.90;;;;;;1901150;74;21043;-70
2020/12/25 11:32:47;;;;;;;4.37;2.70;;;4.60;99.90;;;;;;1904601;74;21070;-70
2020/12/25 11:35:13;;;;;;;2.83;2.47;;;4.50;99.90;;;;;;1901856;74;21080;-71
2020/12/25 11:37:40;;;;;;;4.42;2.60;;;4.40;99.90;;;;;;1937875;72;21062;-70
2020/12/25 11:40:07;;;;;;;5.17;2.92;;;4.40;99.90;;;;;;1929271;73;21078;-71
2020/12/25 11:42:33;;;;;;;5.37;2.77;;;4.30;99.90;;;;;;1919217;73;21066;-70
2020/12/25 11:44:59;;;;;;;3.08;2.42;;;4.40;99.90;;;;;;1930372;73;21071;-70
2020/12/25 11:47:25;;;;;;;3.02;2.65;;;4.30;99.90;;;;;;1888002;74;21071;-70
2020/12/25 11:49:53;;;;;;;4.92;2.40;;;4.30;99.90;;;;;;1921296;74;21103;-70
2020/12/25 11:52:19;;;;;;;3.50;2.67;;;4.20;99.90;;;;;;1892706;74;21059;-71
2020/12/25 11:54:47;;;;;;;7.40;2.35;;;4.20;99.90;;;;;;1922164;72;21078;-72
2020/12/25 11:57:13;;;;;;;3.83;2.52;;;4.20;99.90;;;;;;1923098;74;21043;-70
2020/12/25 11:59:39;;;;;;;3.02;2.65;;;4.10;99.90;;;;;;1890374;75;21273;-70
2020/12/25 12:02:05;;;;;;;3.02;2.17;;;4.00;99.90;;;;;;1917094;74;21062;-72
2020/12/25 12:04:31;;;;;;;6.40;2.52;;;4.00;99.90;;;;;;1894255;74;21152;-73
2020/12/25 12:06:58;;;;;;;2.42;2.22;;;4.00;99.90;;;;;;1888884;75;21071;-73
2020/12/25 12:09:24;;;;;;;3.42;2.60;;;4.00;99.90;;;;;;1894804;74;21149;-74
2020/12/25 12:11:50;;;;;;;7.12;3.05;;;3.90;99.90;;;;;;1922358;74;21258;-74
2020/12/25 12:14:16;;;;;;;3.72;2.17;;;3.90;99.90;;;;;;1930541;73;21129;-71
2020/12/25 12:16:42;;;;;;;4.47;2.90;;;4.00;99.90;;;;;;1922232;74;21082;-71
2020/12/25 12:19:08;;;;;;;4.75;3.02;;;3.90;99.90;;;;;;1918986;73;21482;-71
2020/12/25 12:21:34;;;;;;;2.55;2.20;;;4.00;99.90;;;;;;1923178;73;21451;-71
2020/12/25 12:24:00;;;;;;;4.00;2.60;;;4.00;99.90;;;;;;1932639;73;21540;-72
2020/12/25 12:26:27;;;;;;;6.42;2.72;;;4.00;99.90;;;;;;1891931;74;21152;-72
2020/12/25 12:28:53;;;;;;;3.47;2.72;;;4.10;99.90;;;;;;1883925;74;21079;-71
2020/12/25 12:31:19;;;;;;;4.37;3.15;;;4.00;99.90;;;;;;1925056;73;21074;-72
2020/12/25 12:33:45;;;;;;;7.67;4.22;;;4.10;99.90;;;;;;1930523;73;21067;-72
2020/12/25 12:36:11;;;;;;;5.45;2.67;;;4.10;99.90;;;;;;1921884;73;21098;-71
2020/12/25 12:38:37;;;;;;;5.30;3.00;;;4.10;99.90;;;;;;1887290;75;21140;-72
2020/12/25 12:41:03;;;;;;;4.85;2.98;;;4.10;99.90;;;;;;1927360;73;21040;-71
2020/12/25 12:43:29;;;;;;;3.02;2.08;;;4.00;99.90;;;;;;1923381;73;21535;-73
2020/12/25 12:45:56;;;;;;;2.75;1.80;;;3.80;99.90;;;;;;1891712;74;21639;-70
2020/12/25 12:48:22;;;;;;;3.47;2.20;;;3.70;99.90;;;;;;1920126;72;21554;-72
2020/12/25 12:50:48;;;;;;;4.67;2.55;;;3.60;99.90;;;;;;1893438;74;21074;-72